CLX7335 WIII-ELLX
Flight info
| Callsign | CLX7335 |
|---|---|
| Flight time | N/A |
| Altitude | 30000 |
| Route | RIMTI M766 OBMAT L896 SULEN/N0518F320 L896 MMV Q8 AGELA G208 BBB M638 EXOLU/N0513F340 M638 IGANU P518 PG G208 KEBUD L713 SODOK T216 DAR L125 RADAL/N0500F360 L125 BUDED L333 DASIS UL746 ODERO L746 LUGEB DCT DEGET/N0491F380 DCT ABETI DCT RENKA L610 STAUB/N0472F240 L610 UPALA/N0490F380 Z744 COSJE T892 RIDSU/N0487F260 T892 BUGUR/N0472F240 T892 BETEX |
| Aircraft | B748/H-SDE3FGHIM1M2RWXY/LB1 |
Departure
| Time | 2026-04-28 11:44 |
|---|---|
| Airport | Soekarno-Hatta International Airport (WIII) |
Arrival
| Time | N/A |
|---|---|
| Airport | Luxembourg-Findel International Airport (ELLX) |
| Time | Latitude | Longitude | Altitude | Speed | Heading |
|---|---|---|---|---|---|
| 2026-04-28 11:27 | -6.12866 | 106.66204 | 36 ft | 0 kts | 68° |
| 2026-04-28 11:29 | -6.13882 | 106.64317 | 41 ft | 0 kts | 158° |
| 2026-04-28 11:35 | -6.13872 | 106.64311 | 42 ft | 2 kts | 133° |
| 2026-04-28 11:35 | -6.13862 | 106.64298 | 39 ft | 2 kts | 110° |
| 2026-04-28 11:35 | -6.13858 | 106.64282 | 38 ft | 2 kts | 93° |
| 2026-04-28 11:36 | -6.13859 | 106.64266 | 38 ft | 2 kts | 83° |
| 2026-04-28 11:36 | -6.13861 | 106.64249 | 39 ft | 2 kts | 77° |
| 2026-04-28 11:36 | -6.13866 | 106.64234 | 40 ft | 2 kts | 72° |
| 2026-04-28 11:36 | -6.13871 | 106.64220 | 40 ft | 2 kts | 68° |
| 2026-04-28 11:37 | -6.13873 | 106.64214 | 39 ft | 0 kts | 67° |
| 2026-04-28 11:37 | -6.13873 | 106.64213 | 43 ft | 0 kts | 66° |
| 2026-04-28 11:39 | -6.13868 | 106.64224 | 43 ft | 6 kts | 66° |
| 2026-04-28 11:39 | -6.13840 | 106.64288 | 43 ft | 14 kts | 65° |
| 2026-04-28 11:39 | -6.13790 | 106.64397 | 42 ft | 21 kts | 66° |
| 2026-04-28 11:40 | -6.13742 | 106.64547 | 42 ft | 23 kts | 92° |
| 2026-04-28 11:40 | -6.13802 | 106.64657 | 42 ft | 11 kts | 162° |
| 2026-04-28 11:40 | -6.13843 | 106.64636 | 42 ft | 4 kts | 237° |
| 2026-04-28 11:40 | -6.13857 | 106.64605 | 42 ft | 8 kts | 246° |
| 2026-04-28 11:41 | -6.13877 | 106.64559 | 42 ft | 13 kts | 246° |
| 2026-04-28 11:41 | -6.13917 | 106.64461 | 42 ft | 17 kts | 247° |
| 2026-04-28 11:41 | -6.13971 | 106.64336 | 43 ft | 21 kts | 246° |
| 2026-04-28 11:41 | -6.14031 | 106.64254 | 43 ft | 9 kts | 188° |
| 2026-04-28 11:42 | -6.14086 | 106.64267 | 43 ft | 9 kts | 164° |
| 2026-04-28 11:42 | -6.14172 | 106.64305 | 26 ft | 10 kts | 140° |
| 2026-04-28 11:42 | -6.14198 | 106.64340 | 44 ft | 10 kts | 122° |
| 2026-04-28 11:42 | -6.14221 | 106.64407 | 41 ft | 9 kts | 94° |
| 2026-04-28 11:43 | -6.14214 | 106.64450 | 42 ft | 0 kts | 66° |
| 2026-04-28 11:43 | -6.14173 | 106.64547 | 41 ft | 46 kts | 69° |
| 2026-04-28 11:43 | -6.13961 | 106.65069 | 41 ft | 113 kts | 67° |
| 2026-04-28 11:44 | -6.13601 | 106.65970 | 36 ft | 166 kts | 68° |
| 2026-04-28 11:44 | -6.13125 | 106.67174 | 149 ft | 200 kts | 68° |
| 2026-04-28 11:44 | -6.12616 | 106.68510 | 623 ft | 207 kts | 69° |
| 2026-04-28 11:44 | -6.12074 | 106.69866 | 1105 ft | 213 kts | 68° |
| 2026-04-28 11:45 | -6.11505 | 106.71258 | 1607 ft | 217 kts | 68° |
| 2026-04-28 11:45 | -6.11118 | 106.72740 | 1678 ft | 228 kts | 94° |
| 2026-04-28 11:45 | -6.11829 | 106.74195 | 1295 ft | 254 kts | 147° |
| 2026-04-28 11:45 | -6.13259 | 106.75162 | 1894 ft | 228 kts | 146° |
| 2026-04-28 11:46 | -6.14598 | 106.75896 | 2396 ft | 221 kts | 154° |
| 2026-04-28 11:46 | -6.16067 | 106.76476 | 2506 ft | 226 kts | 166° |
| 2026-04-28 11:46 | -6.17671 | 106.76559 | 2530 ft | 239 kts | 190° |
| 2026-04-28 11:46 | -6.19129 | 106.75789 | 2733 ft | 243 kts | 229° |
| 2026-04-28 11:47 | -6.19796 | 106.74256 | 3123 ft | 241 kts | 261° |
| 2026-04-28 11:47 | -6.19815 | 106.72569 | 3564 ft | 243 kts | 272° |
| 2026-04-28 11:47 | -6.19824 | 106.70868 | 3988 ft | 245 kts | 261° |
| 2026-04-28 11:47 | -6.20078 | 106.69173 | 4385 ft | 248 kts | 265° |
| 2026-04-28 11:48 | -6.20325 | 106.67480 | 4664 ft | 251 kts | 253° |
| 2026-04-28 11:48 | -6.20809 | 106.65782 | 4891 ft | 260 kts | 249° |